createdAt,value
2019-02-06T00:04:32.370Z,29.40
2019-02-06T00:09:37.776Z,25.40
2019-02-06T00:14:43.117Z,28.73
2019-02-06T00:19:48.991Z,31.30
2019-02-06T00:24:55.723Z,27.03
2019-02-06T00:30:01.529Z,27.73
2019-02-06T00:35:07.053Z,28.62
2019-02-06T00:40:12.329Z,27.75
2019-02-06T00:45:17.589Z,25.15
2019-02-06T00:50:22.870Z,23.45
2019-02-06T00:55:28.213Z,25.72
2019-02-06T01:00:33.547Z,24.60
2019-02-06T01:05:39.025Z,23.35
2019-02-06T01:10:44.311Z,24.07
2019-02-06T01:15:49.589Z,23.73
2019-02-06T01:20:54.846Z,23.07
2019-02-06T01:26:00.205Z,23.23
2019-02-06T01:31:07.210Z,23.70
2019-02-06T01:36:12.571Z,25.27
2019-02-06T01:41:18.230Z,22.43
2019-02-06T01:46:23.667Z,24.20
2019-02-06T01:51:28.976Z,24.23
2019-02-06T01:56:34.290Z,21.90
2019-02-06T02:01:39.643Z,21.90
2019-02-06T02:06:45.159Z,21.05
2019-02-06T02:11:50.412Z,22.47
2019-02-06T02:16:55.672Z,22.27
2019-02-06T02:22:00.939Z,20.63
2019-02-06T02:27:06.243Z,20.77
2019-02-06T02:32:11.559Z,22.75
2019-02-06T02:37:16.917Z,20.92
2019-02-06T02:42:22.368Z,21.17
2019-02-06T02:47:27.618Z,20.68
2019-02-06T02:52:32.906Z,20.10
2019-02-06T02:57:38.321Z,21.95
2019-02-06T03:02:57.300Z,20.77
2019-02-06T03:08:02.729Z,24.10
2019-02-06T03:13:07.980Z,21.25
2019-02-06T03:18:13.277Z,23.90
2019-02-06T03:23:18.677Z,23.60
2019-02-06T03:28:24.219Z,21.23
2019-02-06T03:33:29.483Z,22.00
2019-02-06T03:38:34.762Z,22.07
2019-02-06T03:43:40.024Z,22.17
2019-02-06T03:48:45.286Z,18.77
2019-02-06T03:53:50.527Z,24.63
2019-02-06T03:58:55.775Z,23.07
2019-02-06T04:04:01.229Z,21.97
2019-02-06T04:09:07.584Z,21.63
2019-02-06T04:14:12.842Z,24.10
2019-02-06T04:19:18.100Z,20.27
2019-02-06T04:24:23.334Z,23.43
2019-02-06T04:29:28.574Z,23.13
2019-02-06T04:34:33.983Z,19.30
2019-02-06T04:39:39.654Z,16.40
2019-02-06T04:44:44.899Z,16.83
2019-02-06T04:49:50.221Z,19.83
2019-02-06T04:54:55.480Z,16.13
2019-02-06T05:00:00.825Z,22.22
2019-02-06T05:05:07.265Z,19.63
2019-02-06T05:10:13.878Z,20.23
2019-02-06T05:15:19.126Z,21.30
2019-02-06T05:20:30.790Z,20.20
2019-02-06T05:25:36.100Z,18.73
2019-02-06T05:30:41.443Z,21.37
2019-02-06T05:35:46.710Z,22.37
2019-02-06T05:40:51.982Z,24.92
2019-02-06T05:45:57.264Z,23.70
2019-02-06T05:51:02.530Z,24.47
2019-02-06T05:56:07.852Z,22.32
2019-02-06T06:01:14.455Z,21.60
2019-02-06T06:06:19.766Z,22.90
2019-02-06T06:11:25.024Z,22.10
2019-02-06T06:16:30.809Z,22.73
2019-02-06T06:21:36.048Z,23.13
2019-02-06T06:26:41.334Z,24.27
2019-02-06T06:31:46.589Z,26.53
2019-02-06T06:36:51.844Z,23.62
2019-02-06T06:41:57.307Z,24.23
2019-02-06T06:47:02.579Z,22.97
2019-02-06T06:52:07.816Z,24.40
2019-02-06T06:57:13.128Z,23.30
2019-02-06T07:02:18.401Z,25.08
2019-02-06T07:07:23.655Z,22.07
2019-02-06T07:12:28.913Z,23.05
2019-02-06T07:17:34.491Z,26.03
2019-02-06T07:22:39.743Z,25.23
2019-02-06T07:27:45.001Z,26.33
2019-02-06T07:32:50.279Z,22.73
2019-02-06T07:37:55.545Z,23.92
2019-02-06T07:43:00.807Z,21.70
2019-02-06T07:48:06.080Z,21.62
2019-02-06T07:53:11.410Z,27.25
2019-02-06T07:58:17.619Z,20.15
2019-02-06T08:03:22.861Z,21.17
2019-02-06T08:08:36.095Z,23.20
2019-02-06T08:13:36.074Z,21.73
2019-02-06T08:18:41.382Z,20.67
2019-02-06T08:23:46.637Z,22.07
2019-02-06T08:28:51.891Z,23.60
2019-02-06T08:33:57.156Z,21.73
2019-02-06T08:39:02.447Z,25.25
2019-02-06T08:44:08.046Z,26.77
2019-02-06T08:49:13.314Z,26.93
2019-02-06T08:54:20.354Z,23.98
2019-02-06T08:59:25.476Z,21.10
2019-02-06T09:04:30.750Z,23.05
2019-02-06T09:09:36.027Z,21.00
2019-02-06T09:14:41.262Z,20.25
2019-02-06T09:19:46.509Z,24.77
2019-02-06T09:24:51.780Z,20.37
2019-02-06T09:29:57.442Z,22.67
2019-02-06T09:35:02.718Z,23.45
2019-02-06T09:40:11.129Z,23.32
2019-02-06T09:45:16.464Z,29.27
2019-02-06T09:50:24.429Z,64.57
2019-02-06T09:55:29.712Z,50.67
2019-02-06T10:00:36.635Z,65.78
2019-02-06T10:05:42.193Z,37.20
2019-02-06T10:10:47.478Z,20.82
2019-02-06T10:15:52.752Z,20.90
2019-02-06T10:20:58.219Z,23.55
2019-02-06T10:26:03.482Z,25.02
2019-02-06T10:31:08.816Z,21.52
2019-02-06T10:36:14.102Z,27.42
2019-02-06T10:41:19.641Z,20.35
2019-02-06T10:46:26.316Z,23.35
2019-02-06T10:51:31.607Z,22.62
2019-02-06T10:56:36.879Z,20.68
2019-02-06T11:01:42.150Z,22.37
2019-02-06T11:06:47.474Z,20.80
2019-02-06T11:11:52.809Z,21.87
2019-02-06T11:16:58.095Z,23.00
2019-02-06T11:22:06.510Z,22.37
2019-02-06T11:27:15.380Z,22.32
2019-02-06T11:32:20.647Z,21.50
2019-02-06T11:37:25.898Z,20.43
2019-02-06T11:42:31.390Z,22.32
2019-02-06T11:47:36.684Z,20.75
2019-02-06T11:52:42.248Z,19.75
2019-02-06T11:57:47.525Z,18.52
2019-02-06T12:02:52.946Z,18.62
2019-02-06T12:07:58.229Z,22.40
2019-02-06T12:13:03.822Z,17.27
2019-02-06T12:18:09.058Z,19.20
2019-02-06T12:23:14.343Z,15.38
2019-02-06T12:28:19.737Z,19.32
2019-02-06T12:33:25.724Z,16.25
2019-02-06T12:38:30.983Z,13.90
2019-02-06T12:43:36.254Z,21.23
2019-02-06T12:48:41.564Z,13.88
2019-02-06T12:53:46.806Z,15.05
2019-02-06T12:58:52.110Z,14.25
2019-02-06T13:03:57.457Z,13.72
2019-02-06T13:09:03.866Z,15.15
2019-02-06T13:14:11.811Z,18.50
2019-02-06T13:19:17.564Z,14.63
2019-02-06T13:24:22.931Z,14.63
2019-02-06T13:29:28.209Z,18.95
2019-02-06T13:34:33.624Z,14.65
2019-02-06T13:39:39.048Z,14.68
2019-02-06T13:44:45.721Z,14.47
2019-02-06T13:49:54.052Z,12.98
2019-02-06T13:55:00.983Z,12.75
2019-02-06T14:00:15.054Z,14.00
2019-02-06T14:05:23.302Z,13.85
2019-02-06T14:10:32.195Z,13.70
2019-02-06T14:15:42.783Z,12.70
2019-02-06T14:20:49.569Z,10.75
2019-02-06T14:26:19.023Z,10.08
2019-02-06T14:31:27.622Z,10.13
2019-02-06T14:36:42.451Z,10.13
2019-02-06T14:41:54.914Z,9.90
2019-02-06T14:47:03.548Z,10.93
2019-02-06T14:52:29.683Z,11.57
2019-02-06T14:58:05.467Z,26.60
2019-02-06T15:03:25.483Z,22.60
2019-02-06T15:08:53.302Z,12.68
2019-02-06T15:14:36.826Z,21.45
2019-02-06T15:19:57.212Z,15.90
2019-02-06T15:25:11.413Z,15.95
2019-02-06T15:30:34.800Z,11.57
2019-02-06T15:35:46.006Z,11.70
2019-02-06T15:40:57.352Z,11.33
2019-02-06T15:46:34.397Z,9.43
2019-02-06T15:52:04.899Z,9.05
2019-02-06T15:57:46.171Z,9.78
2019-02-06T16:02:57.404Z,12.47
2019-02-06T16:08:08.843Z,11.22
2019-02-06T16:13:34.447Z,10.45
2019-02-06T16:18:45.736Z,14.65
2019-02-06T16:24:00.044Z,13.53
2019-02-06T16:29:08.596Z,14.00
2019-02-06T16:34:36.711Z,12.03
2019-02-06T16:39:51.058Z,12.63
2019-02-06T16:45:02.416Z,14.83
2019-02-06T16:50:20.238Z,19.55
2019-02-06T16:56:05.563Z,16.15
2019-02-06T17:01:14.095Z,18.57
2019-02-06T17:06:31.673Z,26.07
2019-02-06T17:11:49.135Z,28.37
2019-02-06T17:17:12.875Z,32.53
2019-02-06T17:22:36.222Z,39.47
2019-02-06T17:28:07.331Z,42.50
2019-02-06T17:33:32.547Z,42.00
2019-02-06T17:39:00.652Z,46.97
2019-02-06T17:44:14.717Z,48.50
2019-02-06T17:49:26.004Z,52.13
2019-02-06T17:54:52.638Z,54.87
2019-02-06T17:59:58.219Z,52.30
2019-02-06T18:05:03.786Z,56.30
2019-02-06T18:10:15.026Z,56.97
2019-02-06T18:15:20.394Z,50.98
2019-02-06T18:20:25.751Z,49.57
2019-02-06T18:25:31.011Z,45.80
2019-02-06T18:30:36.255Z,48.50
2019-02-06T18:35:41.566Z,43.57
2019-02-06T18:40:47.805Z,45.67
2019-02-06T18:45:53.116Z,50.37
2019-02-06T18:50:58.417Z,60.33
2019-02-06T18:56:03.719Z,118.93
2019-02-06T19:01:09.017Z,90.97
2019-02-06T19:06:14.269Z,90.00
2019-02-06T19:11:19.551Z,83.00
2019-02-06T19:16:24.866Z,75.23
2019-02-06T19:21:30.459Z,56.43
2019-02-06T19:26:37.366Z,47.57
2019-02-06T19:31:42.649Z,37.60
2019-02-06T19:36:49.281Z,25.47
2019-02-06T19:41:54.656Z,26.33
2019-02-06T19:46:59.919Z,25.63
2019-02-06T19:52:05.185Z,38.27
2019-02-06T19:57:10.453Z,42.97
2019-02-06T20:02:15.935Z,31.07
2019-02-06T20:07:21.203Z,29.63
2019-02-06T20:12:26.469Z,31.70
2019-02-06T20:17:31.952Z,26.30
2019-02-06T20:22:37.237Z,27.83
2019-02-06T20:27:42.631Z,25.87
2019-02-06T20:32:47.900Z,26.83
2019-02-06T20:37:53.760Z,27.23
2019-02-06T20:42:59.036Z,30.53
2019-02-06T20:48:04.298Z,35.30
2019-02-06T20:53:09.606Z,36.37
2019-02-06T20:58:14.889Z,35.30
2019-02-06T21:03:20.151Z,36.37
2019-02-06T21:08:25.435Z,36.97
2019-02-06T21:13:33.211Z,37.13
2019-02-06T21:18:37.933Z,31.10
2019-02-06T21:23:43.312Z,28.23
2019-02-06T21:28:48.623Z,30.33
2019-02-06T21:33:53.912Z,31.70
2019-02-06T21:38:59.274Z,32.90
2019-02-06T21:44:08.998Z,33.40
2019-02-06T21:49:14.256Z,36.27
2019-02-06T21:54:19.524Z,35.37
2019-02-06T21:59:24.765Z,34.83
2019-02-06T22:04:30.100Z,34.33
2019-02-06T22:09:35.511Z,31.10
2019-02-06T22:14:40.794Z,33.50
2019-02-06T22:19:46.049Z,36.60
2019-02-06T22:24:51.389Z,36.33
2019-02-06T22:29:57.053Z,30.13
2019-02-06T22:35:02.311Z,24.73
2019-02-06T22:40:11.012Z,31.50
2019-02-06T22:45:24.617Z,33.00
2019-02-06T22:50:29.915Z,28.50
2019-02-06T22:55:35.175Z,33.30
2019-02-06T23:00:51.389Z,34.43
2019-02-06T23:05:57.002Z,32.90
2019-02-06T23:11:02.310Z,33.20
2019-02-06T23:16:07.586Z,34.50
2019-02-06T23:21:12.858Z,30.53
2019-02-06T23:26:18.189Z,32.67
2019-02-06T23:31:23.456Z,32.77
2019-02-06T23:36:29.114Z,34.10
2019-02-06T23:41:34.389Z,29.30
2019-02-06T23:46:39.659Z,34.23
2019-02-06T23:51:44.960Z,34.33
2019-02-06T23:56:50.276Z,35.80
